Skip Navigation LinksHome page > Weather > Current weather Skip Navigation Links

Current Weather

Jakutsk, Russia

For information only: do not use for flight planning or navigation.
Latest weather
Observation time Monday, December 5, 2016 5:00 PM JST
Local time Monday, December 5, 2016 5:24 PM JST
Flight conditions Visual Meteorological Conditions
Winds
Wind direction West (280°)
Wind speed 2 mph
Visibility 6.2 mi.
Present weather light snow
Sky condition
Ceiling unlimited
Temperature -36°F
Dewpoint -44°F
Altimeter 30.21 in.Hg
Precipitation
QF 5:38 AM
Derived measurements
Relative humidity 66%
Wind chill -36°F
Density altitude -7098 ft.
Remarks
No significant changes expected in the next two hours.
METAR UEEE 050800Z 28001MPS 9999 -SN NSC M38/M42 Q1023 R23L/490150 NOSIG RMK QFE758

Settings

Location code

InnerDrive.Weather 4.0.6144.1 Release CLR 4.0.30319.34209
Copyright ©2015 Inner Drive Technology. All rights reserved. Portions Copyright ©1986-2015 David Braverman.

Find weather

Site navigation


Skip Navigation Links

Place info

Page info

PayPal - The safer, easier way to pay online!

Return home.

Copyright ©2016 Inner Drive Technology. Purveyors of fine, hand-crafted computer software. Page printed 2016-12-05T08:24:57 UTC.